nws-alerts: Checking more than four warning/county codes can delay the loading of your pages. You should use a cron job to get the data.
EllijayWeather Station Historical Data
Daily Summary for February 17, 2019 Units:  English    Metric   Both
Daily Weekly Monthly Yearly Custom
  High: Low: Average:
Temperature: 49.5 °F 44.2 °F 46.2 °F
Dew Point: 47.5 °F 43.3 °F 45.4 °F
Humidity: 100% 92% 97%
Wind Speed: 4.0mph 0.0mph 0.2mph
Wind Gust: 8.0mph - -
Wind- - SSE
Pressure: 29.99 in 29.85 in -
Precipitation: 1.01 in    
Historical Graphs
 
 
Tabular Data for February 17, 2019
Time Temperature Dew Point Pressure Wind Wind Speed Wind Gust Humidity Rainfall Rate (Hourly) solar
00:04 45.3 °F 44.8 °F 29.88 in Calm     98% 0.00 in meteobridge W/m2
00:09 45.3 °F 44.8 °F 29.89 in Calm     98% 0.00 in meteobridge W/m2
00:14 45.3 °F 44.8 °F 29.89 in Calm     98% 0.00 in meteobridge W/m2
00:19 45.3 °F 44.8 °F 29.89 in Calm   2.0 mph 98% 0.00 in meteobridge W/m2
00:24 46.2 °F 46.0 °F 29.89 in Calm     99% 0.00 in meteobridge W/m2
00:29 46.8 °F 46.6 °F 29.89 in Calm     99% 0.00 in meteobridge W/m2
00:34 46.9 °F 46.8 °F 29.89 in Calm     99% 0.00 in meteobridge W/m2
00:39 47.1 °F 46.6 °F 29.90 in Calm     98% 0.00 in meteobridge W/m2
00:44 47.1 °F 46.6 °F 29.90 in Calm     98% 0.00 in meteobridge W/m2
00:49 47.7 °F 46.9 °F 29.90 in Calm   5.0 mph 97% 0.00 in meteobridge W/m2
00:54 48.0 °F 47.1 °F 29.91 in Calm   1.0 mph 97% 0.00 in meteobridge W/m2
00:59 48.4 °F 47.3 °F 29.91 in Calm     96% 0.00 in meteobridge W/m2
01:04 48.6 °F 47.5 °F 29.91 in Calm     96% 0.00 in meteobridge W/m2
01:09 48.4 °F 46.9 °F 29.90 in Calm     95% 0.00 in meteobridge W/m2
01:14 48.6 °F 47.1 °F 29.90 in Calm     95% 0.00 in meteobridge W/m2
01:19 48.7 °F 47.3 °F 29.89 in Calm     95% 0.00 in meteobridge W/m2
01:24 48.7 °F 47.1 °F 29.89 in Calm   1.0 mph 94% 0.00 in meteobridge W/m2
01:29 48.7 °F 47.1 °F 29.89 in SE 2.0 mph 2.0 mph 94% 0.00 in meteobridge W/m2
01:34 48.9 °F 46.9 °F 29.90 in Calm     93% 0.00 in meteobridge W/m2
01:39 49.1 °F 47.1 °F 29.89 in SE 4.0 mph 4.0 mph 93% 0.00 in meteobridge W/m2
01:44 49.3 °F 47.3 °F 29.89 in SSE 0.9 mph 5.0 mph 93% 0.00 in meteobridge W/m2
01:49 49.3 °F 47.1 °F 29.90 in Calm   1.0 mph 92% 0.00 in meteobridge W/m2
01:54 49.3 °F 47.1 °F 29.90 in Calm   1.0 mph 92% 0.00 in meteobridge W/m2
01:59 49.3 °F 47.1 °F 29.90 in Calm   1.0 mph 92% 0.00 in meteobridge W/m2
02:04 49.5 °F 47.3 °F 29.90 in Calm   4.0 mph 92% 0.00 in meteobridge W/m2
02:09 49.5 °F 47.3 °F 29.90 in Calm     92% 0.00 in meteobridge W/m2
02:14 49.3 °F 47.1 °F 29.91 in Calm   2.0 mph 92% 0.00 in meteobridge W/m2
02:19 49.1 °F 46.9 °F 29.91 in Calm     92% 0.00 in meteobridge W/m2
02:24 49.1 °F 46.9 °F 29.91 in Calm     92% 0.00 in meteobridge W/m2
02:29 49.3 °F 47.1 °F 29.90 in Calm     92% 0.00 in meteobridge W/m2
02:34 48.9 °F 46.8 °F 29.89 in Calm   1.0 mph 92% 0.00 in meteobridge W/m2
02:39 49.1 °F 46.9 °F 29.90 in SE 0.9 mph 1.0 mph 92% 0.00 in meteobridge W/m2
02:44 48.9 °F 46.9 °F 29.90 in Calm     93% 0.00 in meteobridge W/m2
02:49 48.9 °F 46.9 °F 29.90 in Calm     93% 0.00 in meteobridge W/m2
02:54 48.9 °F 46.9 °F 29.90 in Calm     93% 0.00 in meteobridge W/m2
02:59 48.7 °F 47.1 °F 29.91 in Calm     94% 0.00 in meteobridge W/m2
03:04 48.6 °F 46.9 °F 29.91 in Calm     94% 0.00 in meteobridge W/m2
03:09 48.6 °F 47.1 °F 29.91 in Calm     95% 0.00 in meteobridge W/m2
03:14 48.4 °F 46.9 °F 29.91 in Calm     95% 0.00 in meteobridge W/m2
03:19 48.2 °F 46.8 °F 29.91 in Calm     95% 0.00 in meteobridge W/m2
03:24 48.0 °F 46.9 °F 29.91 in Calm     96% 0.00 in meteobridge W/m2
03:29 48.0 °F 46.9 °F 29.91 in Calm     96% 0.00 in meteobridge W/m2
03:34 48.0 °F 46.9 °F 29.91 in Calm   1.0 mph 96% 0.00 in meteobridge W/m2
03:39 47.8 °F 46.4 °F 29.92 in Calm     95% 0.00 in meteobridge W/m2
03:44 48.0 °F 46.9 °F 29.93 in Calm     96% 0.01 in meteobridge W/m2
03:49 47.8 °F 46.8 °F 29.93 in Calm     96% 0.01 in meteobridge W/m2
03:54 47.8 °F 46.8 °F 29.93 in Calm     96% 0.01 in meteobridge W/m2
03:59 47.8 °F 46.8 °F 29.93 in Calm     96% 0.02 in meteobridge W/m2
04:04 47.8 °F 46.8 °F 29.92 in Calm     96% 0.03 in meteobridge W/m2
04:09 47.7 °F 46.9 °F 29.92 in Calm     97% 0.03 in meteobridge W/m2
04:14 47.7 °F 46.9 °F 29.91 in Calm     97% 0.03 in meteobridge W/m2
04:19 47.7 °F 46.9 °F 29.91 in Calm     97% 0.04 in meteobridge W/m2
04:24 47.5 °F 46.8 °F 29.90 in Calm     97% 0.04 in meteobridge W/m2
04:29 47.3 °F 47.3 °F 29.89 in SE 2.0 mph 2.0 mph 100% 0.04 in meteobridge W/m2
04:34 47.1 °F 46.4 °F 29.90 in Calm   2.0 mph 97% 0.04 in meteobridge W/m2
04:39 47.1 °F 46.4 °F 29.90 in Calm   4.0 mph 97% 0.04 in meteobridge W/m2
04:44 47.1 °F 46.4 °F 29.90 in Calm     97% 0.03 in meteobridge W/m2
04:49 47.1 °F 46.4 °F 29.90 in Calm   1.0 mph 97% 0.03 in meteobridge W/m2
04:54 47.1 °F 46.4 °F 29.90 in Calm   1.0 mph 97% 0.04 in meteobridge W/m2
04:59 47.1 °F 46.4 °F 29.90 in Calm   2.0 mph 97% 0.03 in meteobridge W/m2
05:04 46.9 °F 46.2 °F 29.90 in Calm     97% 0.02 in meteobridge W/m2
05:09 46.9 °F 46.2 °F 29.90 in Calm   2.0 mph 97% 0.02 in meteobridge W/m2
05:14 46.9 °F 46.2 °F 29.89 in Calm   4.0 mph 97% 0.02 in meteobridge W/m2
05:19 46.9 °F 46.2 °F 29.89 in Calm     97% 0.01 in meteobridge W/m2
05:24 46.9 °F 46.2 °F 29.89 in Calm   1.0 mph 97% 0.02 in meteobridge W/m2
05:29 46.9 °F 46.2 °F 29.90 in Calm     97% 0.02 in meteobridge W/m2
05:34 46.9 °F 46.2 °F 29.89 in Calm     97% 0.02 in meteobridge W/m2
05:39 46.9 °F 46.2 °F 29.90 in Calm     97% 0.02 in meteobridge W/m2
05:44 46.9 °F 46.2 °F 29.90 in Calm     97% 0.02 in meteobridge W/m2
05:49 46.9 °F 46.2 °F 29.90 in Calm     97% 0.02 in meteobridge W/m2
05:54 46.9 °F 46.2 °F 29.90 in Calm     97% 0.02 in meteobridge W/m2
05:59 46.9 °F 46.2 °F 29.91 in Calm   2.0 mph 97% 0.02 in meteobridge W/m2
06:04 46.9 °F 46.2 °F 29.91 in Calm     97% 0.02 in meteobridge W/m2
06:09 46.9 °F 46.2 °F 29.91 in Calm     97% 0.02 in meteobridge W/m2
06:14 46.9 °F 46.2 °F 29.91 in Calm   1.0 mph 97% 0.03 in meteobridge W/m2
06:19 46.8 °F 46.2 °F 29.91 in Calm     98% 0.03 in meteobridge W/m2
06:24 46.8 °F 46.2 °F 29.91 in Calm     98% 0.02 in meteobridge W/m2
06:29 46.8 °F 46.2 °F 29.91 in SE 0.9 mph 2.0 mph 98% 0.03 in meteobridge W/m2
06:34 46.8 °F 46.0 °F 29.92 in Calm     97% 0.03 in meteobridge W/m2
06:39 46.8 °F 46.0 °F 29.93 in Calm   2.0 mph 97% 0.03 in meteobridge W/m2
06:44 46.8 °F 46.0 °F 29.93 in Calm   1.0 mph 97% 0.03 in meteobridge W/m2
06:49 46.8 °F 46.0 °F 29.93 in Calm     97% 0.03 in meteobridge W/m2
06:54 46.6 °F 45.9 °F 29.93 in Calm     97% 0.02 in meteobridge W/m2
06:59 46.6 °F 45.9 °F 29.93 in Calm   4.0 mph 97% 0.02 in meteobridge W/m2
07:04 46.6 °F 45.9 °F 29.93 in Calm     97% 0.02 in meteobridge W/m2
07:09 46.6 °F 45.9 °F 29.94 in Calm     97% 0.02 in meteobridge W/m2
07:14 46.6 °F 45.9 °F 29.94 in Calm     97% 0.01 in meteobridge W/m2
07:19 46.4 °F 45.7 °F 29.94 in Calm   2.0 mph 97% 0.01 in meteobridge W/m2
07:24 46.4 °F 45.7 °F 29.94 in Calm   2.0 mph 97% 0.01 in meteobridge W/m2
07:29 46.2 °F 45.5 °F 29.93 in Calm     97% 0.00 in meteobridge W/m2
07:34 46.2 °F 45.5 °F 29.93 in Calm   1.0 mph 97% 0.00 in meteobridge W/m2
07:39 46.0 °F 45.3 °F 29.93 in Calm   1.0 mph 97% 0.00 in meteobridge W/m2
07:44 46.0 °F 45.3 °F 29.93 in Calm   2.0 mph 97% 0.00 in meteobridge W/m2
07:49 46.0 °F 45.0 °F 29.94 in Calm   1.0 mph 96% 0.00 in meteobridge W/m2
07:54 46.0 °F 45.0 °F 29.94 in Calm   4.0 mph 96% 0.00 in meteobridge W/m2
07:59 46.0 °F 45.0 °F 29.93 in Calm   1.0 mph 96% 0.00 in meteobridge W/m2
08:04 46.0 °F 45.0 °F 29.94 in Calm   4.0 mph 96% 0.00 in meteobridge W/m2
08:09 46.0 °F 45.0 °F 29.95 in Calm   2.0 mph 96% 0.00 in meteobridge W/m2
08:14 46.0 °F 45.3 °F 29.95 in Calm   2.0 mph 97% 0.00 in meteobridge W/m2
08:19 46.0 °F 45.3 °F 29.95 in Calm   4.0 mph 97% 0.00 in meteobridge W/m2
08:24 46.0 °F 45.3 °F 29.96 in Calm   2.0 mph 97% 0.00 in meteobridge W/m2
08:29 46.0 °F 45.3 °F 29.96 in Calm     97% 0.00 in meteobridge W/m2
08:34 46.0 °F 45.3 °F 29.96 in Calm     97% 0.00 in meteobridge W/m2
08:39 46.0 °F 45.3 °F 29.96 in Calm     97% 0.00 in meteobridge W/m2
08:44 46.0 °F 45.3 °F 29.96 in Calm     97% 0.00 in meteobridge W/m2
08:49 46.0 °F 45.3 °F 29.96 in Calm   1.0 mph 97% 0.00 in meteobridge W/m2
08:54 46.0 °F 45.3 °F 29.96 in SE 0.9 mph 4.0 mph 97% 0.00 in meteobridge W/m2
08:59 46.0 °F 45.3 °F 29.96 in Calm   1.0 mph 97% 0.00 in meteobridge W/m2
09:04 46.0 °F 45.0 °F 29.96 in Calm     96% 0.00 in meteobridge W/m2
09:09 46.0 °F 44.6 °F 29.96 in Calm   4.0 mph 95% 0.00 in meteobridge W/m2
09:14 46.0 °F 44.6 °F 29.97 in Calm   5.0 mph 95% 0.00 in meteobridge W/m2
09:19 45.9 °F 44.8 °F 29.97 in East 0.9 mph 2.0 mph 96% 0.01 in meteobridge W/m2
09:24 45.9 °F 45.1 °F 29.96 in SSE 4.0 mph 5.0 mph 97% 0.01 in meteobridge W/m2
09:29 45.7 °F 45.0 °F 29.96 in Calm     97% 0.01 in meteobridge W/m2
09:34 45.7 °F 45.0 °F 29.96 in Calm   2.0 mph 97% 0.01 in meteobridge W/m2
09:39 45.7 °F 45.0 °F 29.96 in SSE 0.9 mph 4.0 mph 97% 0.01 in meteobridge W/m2
09:44 45.5 °F 44.8 °F 29.96 in Calm     97% 0.01 in meteobridge W/m2
09:49 45.5 °F 44.4 °F 29.96 in Calm   6.0 mph 96% 0.01 in meteobridge W/m2
09:54 45.7 °F 45.0 °F 29.96 in SSE 2.0 mph 2.0 mph 97% 0.01 in meteobridge W/m2
09:59 45.5 °F 44.2 °F 29.96 in SE 4.0 mph 5.0 mph 95% 0.01 in meteobridge W/m2
10:04 45.7 °F 44.6 °F 29.96 in Calm   5.0 mph 96% 0.01 in meteobridge W/m2
10:09 45.7 °F 44.4 °F 29.96 in South 0.9 mph 4.0 mph 95% 0.01 in meteobridge W/m2
10:14 45.7 °F 44.6 °F 29.96 in SSE 4.0 mph 6.0 mph 96% 0.01 in meteobridge W/m2
10:19 45.7 °F 44.4 °F 29.96 in SE 2.0 mph 4.0 mph 95% 0.00 in meteobridge W/m2
10:24 45.5 °F 44.4 °F 29.96 in ESE 4.0 mph 8.0 mph 96% 0.00 in meteobridge W/m2
10:29 45.7 °F 44.6 °F 29.97 in Calm   6.0 mph 96% 0.00 in meteobridge W/m2
10:34 45.7 °F 44.6 °F 29.97 in Calm   5.0 mph 96% 0.00 in meteobridge W/m2
10:39 45.7 °F 44.6 °F 29.97 in Calm   1.0 mph 96% 0.00 in meteobridge W/m2
10:44 45.7 °F 44.4 °F 29.98 in Calm   4.0 mph 95% 0.00 in meteobridge W/m2
10:49 45.7 °F 44.4 °F 29.97 in ESE 0.9 mph 2.0 mph 95% 0.00 in meteobridge W/m2
10:54 45.5 °F 44.2 °F 29.98 in Calm   2.0 mph 95% 0.00 in meteobridge W/m2
10:59 45.5 °F 44.2 °F 29.97 in Calm     95% 0.00 in meteobridge W/m2
11:04 45.5 °F 44.2 °F 29.98 in Calm   4.0 mph 95% 0.00 in meteobridge W/m2
11:09 45.5 °F 44.2 °F 29.97 in SE 2.0 mph 7.0 mph 95% 0.00 in meteobridge W/m2
11:14 45.5 °F 44.2 °F 29.98 in Calm     95% 0.00 in meteobridge W/m2
11:19 45.5 °F 44.2 °F 29.97 in Calm   1.0 mph 95% 0.00 in meteobridge W/m2
11:24 45.5 °F 44.4 °F 29.97 in Calm   4.0 mph 96% 0.00 in meteobridge W/m2
11:29 45.3 °F 44.1 °F 29.98 in Calm     95% 0.00 in meteobridge W/m2
11:34 45.5 °F 44.4 °F 29.98 in Calm   1.0 mph 96% 0.00 in meteobridge W/m2
11:39 45.5 °F 44.2 °F 29.98 in Calm   1.0 mph 95% 0.00 in meteobridge W/m2
11:44 45.5 °F 44.4 °F 29.99 in Calm     96% 0.00 in meteobridge W/m2
11:49 45.5 °F 44.4 °F 29.99 in Calm     96% 0.01 in meteobridge W/m2
11:54 45.5 °F 44.4 °F 29.99 in Calm     96% 0.03 in meteobridge W/m2
11:59 45.5 °F 44.8 °F 29.99 in Calm     97% 0.04 in meteobridge W/m2
12:04 45.5 °F 44.8 °F 29.99 in Calm     97% 0.05 in meteobridge W/m2
12:09 45.3 °F 44.2 °F 29.98 in Calm     96% 0.05 in meteobridge W/m2
12:14 45.1 °F 44.1 °F 29.98 in Calm     96% 0.05 in meteobridge W/m2
12:19 45.0 °F 44.2 °F 29.98 in Calm     97% 0.05 in meteobridge W/m2
12:24 45.0 °F 44.2 °F 29.98 in ESE 2.0 mph 2.0 mph 97% 0.06 in meteobridge W/m2
12:29 45.0 °F 44.2 °F 29.99 in Calm     97% 0.06 in meteobridge W/m2
12:34 45.0 °F 44.2 °F 29.98 in Calm     97% 0.06 in meteobridge W/m2
12:39 45.0 °F 44.2 °F 29.98 in Calm     97% 0.06 in meteobridge W/m2
12:44 45.0 °F 44.2 °F 29.98 in Calm     97% 0.06 in meteobridge W/m2
12:49 45.0 °F 44.2 °F 29.98 in Calm   1.0 mph 97% 0.05 in meteobridge W/m2
12:54 45.0 °F 44.2 °F 29.96 in Calm     97% 0.03 in meteobridge W/m2
12:59 45.0 °F 44.2 °F 29.95 in Calm     97% 0.02 in meteobridge W/m2
13:03 44.8 °F 44.1 °F 29.96 in Calm     97% 0.01 in meteobridge W/m2
13:09 45.0 °F 44.2 °F 29.96 in Calm     97% 0.01 in meteobridge W/m2
13:14 45.0 °F 44.4 °F 29.96 in Calm     98% 0.01 in meteobridge W/m2
13:19 45.0 °F 44.4 °F 29.96 in Calm     98% 0.01 in meteobridge W/m2
13:24 45.1 °F 44.6 °F 29.96 in Calm     98% 0.00 in meteobridge W/m2
13:29 45.1 °F 44.6 °F 29.95 in Calm     98% 0.00 in meteobridge W/m2
13:34 45.1 °F 44.4 °F 29.95 in Calm     97% 0.00 in meteobridge W/m2
13:39 45.0 °F 44.2 °F 29.95 in Calm     97% 0.00 in meteobridge W/m2
13:44 45.0 °F 44.2 °F 29.94 in Calm     97% 0.00 in meteobridge W/m2
13:49 45.0 °F 44.2 °F 29.94 in Calm     97% 0.00 in meteobridge W/m2
13:54 45.0 °F 44.2 °F 29.95 in Calm     97% 0.00 in meteobridge W/m2
13:59 45.1 °F 44.4 °F 29.95 in Calm     97% 0.00 in meteobridge W/m2
14:04 45.1 °F 44.4 °F 29.95 in Calm   2.0 mph 97% 0.00 in meteobridge W/m2
14:09 45.1 °F 44.4 °F 29.94 in Calm     97% 0.00 in meteobridge W/m2
14:14 45.3 °F 44.6 °F 29.94 in Calm     97% 0.00 in meteobridge W/m2
14:19 45.3 °F 44.6 °F 29.94 in Calm     97% 0.00 in meteobridge W/m2
14:24 45.3 °F 44.6 °F 29.94 in Calm     97% 0.00 in meteobridge W/m2
14:29 45.3 °F 44.6 °F 29.94 in Calm     97% 0.00 in meteobridge W/m2
14:34 45.3 °F 44.6 °F 29.94 in Calm     97% 0.00 in meteobridge W/m2
14:39 45.3 °F 44.6 °F 29.94 in Calm     97% 0.00 in meteobridge W/m2
14:44 45.3 °F 44.2 °F 29.93 in Calm     96% 0.00 in meteobridge W/m2
14:49 45.1 °F 44.4 °F 29.92 in Calm     97% 0.00 in meteobridge W/m2
14:54 45.0 °F 43.9 °F 29.92 in Calm     96% 0.00 in meteobridge W/m2
14:59 45.0 °F 43.9 °F 29.93 in Calm     96% 0.00 in meteobridge W/m2
15:04 44.8 °F 43.7 °F 29.92 in Calm   1.0 mph 96% 0.00 in meteobridge W/m2
15:09 44.8 °F 43.7 °F 29.91 in Calm     96% 0.00 in meteobridge W/m2
15:14 44.8 °F 43.7 °F 29.92 in Calm     96% 0.00 in meteobridge W/m2
15:19 44.6 °F 43.5 °F 29.91 in Calm     96% 0.00 in meteobridge W/m2
15:24 44.4 °F 43.3 °F 29.91 in Calm     96% 0.00 in meteobridge W/m2
15:29 44.6 °F 43.9 °F 29.90 in Calm     97% 0.00 in meteobridge W/m2
15:34 44.4 °F 43.7 °F 29.91 in Calm   1.0 mph 97% 0.00 in meteobridge W/m2
15:39 44.4 °F 43.7 °F 29.91 in Calm     97% 0.00 in meteobridge W/m2
15:44 44.4 °F 43.7 °F 29.91 in Calm   1.0 mph 97% 0.00 in meteobridge W/m2
15:49 44.4 °F 43.7 °F 29.91 in Calm     97% 0.00 in meteobridge W/m2
15:54 44.2 °F 43.5 °F 29.91 in Calm     97% 0.00 in meteobridge W/m2
15:59 44.4 °F 43.7 °F 29.90 in Calm     97% 0.00 in meteobridge W/m2
16:04 44.4 °F 43.7 °F 29.90 in Calm     97% 0.00 in meteobridge W/m2
16:09 44.4 °F 43.7 °F 29.90 in Calm     97% 0.00 in meteobridge W/m2
16:14 44.4 °F 43.7 °F 29.90 in Calm     97% 0.00 in meteobridge W/m2
16:19 44.4 °F 43.7 °F 29.91 in Calm     97% 0.01 in meteobridge W/m2
16:24 44.4 °F 43.7 °F 29.91 in Calm     97% 0.01 in meteobridge W/m2
16:29 44.4 °F 43.7 °F 29.90 in Calm     97% 0.02 in meteobridge W/m2
16:34 44.4 °F 43.9 °F 29.89 in Calm     98% 0.03 in meteobridge W/m2
16:39 44.4 °F 43.9 °F 29.89 in Calm     98% 0.03 in meteobridge W/m2
16:44 44.4 °F 43.9 °F 29.89 in Calm     98% 0.04 in meteobridge W/m2
16:49 44.4 °F 43.9 °F 29.89 in Calm     98% 0.04 in meteobridge W/m2
16:54 44.4 °F 43.7 °F 29.88 in Calm     97% 0.04 in meteobridge W/m2
16:59 44.4 °F 43.9 °F 29.88 in Calm     98% 0.04 in meteobridge W/m2
17:04 44.4 °F 43.9 °F 29.87 in Calm     98% 0.04 in meteobridge W/m2
17:09 44.4 °F 43.9 °F 29.88 in Calm     98% 0.04 in meteobridge W/m2
17:14 44.4 °F 43.9 °F 29.88 in Calm     98% 0.04 in meteobridge W/m2
17:19 44.4 °F 43.9 °F 29.88 in Calm   2.0 mph 98% 0.04 in meteobridge W/m2
17:24 44.4 °F 43.9 °F 29.88 in Calm     98% 0.08 in meteobridge W/m2
17:29 44.4 °F 43.9 °F 29.88 in Calm     98% 0.10 in meteobridge W/m2
17:34 44.4 °F 43.9 °F 29.88 in Calm     98% 0.11 in meteobridge W/m2
17:39 44.2 °F 43.7 °F 29.88 in Calm     98% 0.14 in meteobridge W/m2
17:44 44.2 °F 43.7 °F 29.89 in Calm     98% 0.15 in meteobridge W/m2
17:49 44.2 °F 43.7 °F 29.89 in Calm     98% 0.17 in meteobridge W/m2
17:54 44.2 °F 43.7 °F 29.89 in Calm     98% 0.19 in meteobridge W/m2
17:59 44.2 °F 43.7 °F 29.89 in Calm     98% 0.21 in meteobridge W/m2
18:03 44.2 °F 43.7 °F 29.89 in Calm     98% 0.22 in meteobridge W/m2
18:09 44.2 °F 43.7 °F 29.89 in Calm     98% 0.24 in meteobridge W/m2
18:14 44.2 °F 43.7 °F 29.88 in Calm     98% 0.28 in meteobridge W/m2
18:19 44.2 °F 43.7 °F 29.89 in Calm     98% 0.30 in meteobridge W/m2
18:24 44.2 °F 43.7 °F 29.88 in Calm     98% 0.28 in meteobridge W/m2
18:29 44.4 °F 43.9 °F 29.88 in Calm   1.0 mph 98% 0.27 in meteobridge W/m2
18:34 44.4 °F 44.2 °F 29.89 in Calm     99% 0.26 in meteobridge W/m2
18:39 44.4 °F 43.9 °F 29.88 in Calm     98% 0.26 in meteobridge W/m2
18:44 44.6 °F 44.4 °F 29.89 in Calm     99% 0.26 in meteobridge W/m2
18:49 44.8 °F 44.6 °F 29.88 in Calm     99% 0.26 in meteobridge W/m2
18:54 44.8 °F 44.6 °F 29.88 in Calm     99% 0.26 in meteobridge W/m2
18:59 44.8 °F 44.6 °F 29.88 in Calm     99% 0.26 in meteobridge W/m2
19:03 44.8 °F 44.6 °F 29.87 in Calm     99% 0.26 in meteobridge W/m2
19:09 44.8 °F 44.6 °F 29.87 in Calm   1.0 mph 99% 0.24 in meteobridge W/m2
19:14 45.0 °F 44.8 °F 29.87 in Calm     99% 0.20 in meteobridge W/m2
19:19 45.0 °F 44.8 °F 29.87 in Calm     99% 0.19 in meteobridge W/m2
19:24 45.0 °F 44.8 °F 29.87 in Calm   1.0 mph 99% 0.17 in meteobridge W/m2
19:29 45.0 °F 44.8 °F 29.86 in Calm     99% 0.15 in meteobridge W/m2
19:34 45.0 °F 44.8 °F 29.85 in Calm     99% 0.15 in meteobridge W/m2
19:39 45.1 °F 45.0 °F 29.86 in Calm   3.0 mph 99% 0.12 in meteobridge W/m2
19:44 45.3 °F 45.1 °F 29.88 in WNW 4.0 mph 6.0 mph 99% 0.10 in meteobridge W/m2
19:49 45.3 °F 45.1 °F 29.88 in NNW 2.0 mph 8.0 mph 99% 0.08 in meteobridge W/m2
19:54 45.5 °F 45.3 °F 29.89 in WNW 2.9 mph 4.0 mph 99% 0.07 in meteobridge W/m2
19:59 45.7 °F 45.5 °F 29.89 in Calm   5.0 mph 99% 0.06 in meteobridge W/m2
20:04 45.9 °F 45.7 °F 29.89 in Calm   5.0 mph 99% 0.05 in meteobridge W/m2
20:09 45.9 °F 45.7 °F 29.88 in Calm   2.0 mph 99% 0.07 in meteobridge W/m2
20:14 46.0 °F 45.9 °F 29.88 in Calm     99% 0.07 in meteobridge W/m2
20:19 46.0 °F 45.9 °F 29.89 in Calm   1.0 mph 99% 0.08 in meteobridge W/m2
20:24 46.0 °F 45.9 °F 29.90 in Calm     99% 0.10 in meteobridge W/m2
20:29 46.0 °F 45.9 °F 29.93 in Calm   3.0 mph 99% 0.11 in meteobridge W/m2
20:34 46.2 °F 46.0 °F 29.95 in Calm   2.0 mph 99% 0.11 in meteobridge W/m2
20:39 46.6 °F 46.4 °F 29.94 in Calm     99% 0.14 in meteobridge W/m2
20:44 46.6 °F 46.4 °F 29.93 in Calm     99% 0.17 in meteobridge W/m2
20:49 46.8 °F 46.6 °F 29.92 in Calm     99% 0.18 in meteobridge W/m2
20:54 46.8 °F 46.6 °F 29.93 in Calm     99% 0.18 in meteobridge W/m2
20:59 46.9 °F 46.8 °F 29.94 in Calm     99% 0.17 in meteobridge W/m2
21:04 46.9 °F 46.8 °F 29.94 in Calm   1.0 mph 99% 0.18 in meteobridge W/m2
21:09 46.9 °F 46.8 °F 29.97 in Calm     99% 0.17 in meteobridge W/m2
21:14 46.9 °F 46.8 °F 29.95 in Calm     99% 0.16 in meteobridge W/m2
21:19 46.9 °F 46.8 °F 29.97 in Calm     99% 0.15 in meteobridge W/m2
21:24 46.9 °F 46.8 °F 29.97 in Calm   1.0 mph 99% 0.13 in meteobridge W/m2
21:29 46.9 °F 46.8 °F 29.98 in Calm     99% 0.12 in meteobridge W/m2
21:34 46.9 °F 46.8 °F 29.96 in Calm     99% 0.12 in meteobridge W/m2
21:39 46.9 °F 46.8 °F 29.96 in Calm     99% 0.09 in meteobridge W/m2
21:44 47.1 °F 46.9 °F 29.98 in Calm     99% 0.07 in meteobridge W/m2
21:49 47.1 °F 46.9 °F 29.96 in Calm     99% 0.06 in meteobridge W/m2
21:54 47.1 °F 46.9 °F 29.96 in Calm     99% 0.05 in meteobridge W/m2
21:59 47.1 °F 46.9 °F 29.96 in Calm     99% 0.05 in meteobridge W/m2
22:04 47.1 °F 46.9 °F 29.96 in Calm     99% 0.04 in meteobridge W/m2
22:09 47.1 °F 46.9 °F 29.96 in Calm     99% 0.03 in meteobridge W/m2
22:14 47.1 °F 46.9 °F 29.97 in Calm     99% 0.03 in meteobridge W/m2
22:19 47.1 °F 46.9 °F 29.97 in Calm     99% 0.03 in meteobridge W/m2
22:24 47.1 °F 46.9 °F 29.96 in Calm     99% 0.03 in meteobridge W/m2
22:29 47.1 °F 46.9 °F 29.96 in Calm     99% 0.02 in meteobridge W/m2
22:34 47.1 °F 46.9 °F 29.97 in Calm     99% 0.02 in meteobridge W/m2
22:39 47.1 °F 46.9 °F 29.97 in Calm     99% 0.03 in meteobridge W/m2
22:44 47.1 °F 46.9 °F 29.98 in Calm     99% 0.02 in meteobridge W/m2
22:49 47.1 °F 46.9 °F 29.97 in Calm     99% 0.02 in meteobridge W/m2
22:54 47.1 °F 46.9 °F 29.97 in Calm     99% 0.02 in meteobridge W/m2
22:59 46.9 °F 46.8 °F 29.98 in Calm     99% 0.03 in meteobridge W/m2
23:04 47.1 °F 46.9 °F 29.99 in Calm     99% 0.04 in meteobridge W/m2
23:09 46.9 °F 46.8 °F 29.99 in Calm     99% 0.04 in meteobridge W/m2
23:14 47.1 °F 46.9 °F 29.98 in Calm     99% 0.05 in meteobridge W/m2
23:19 47.1 °F 46.9 °F 29.98 in Calm     99% 0.05 in meteobridge W/m2
23:24 47.1 °F 46.9 °F 29.98 in Calm     99% 0.05 in meteobridge W/m2
23:29 47.1 °F 46.9 °F 29.98 in Calm     99% 0.05 in meteobridge W/m2
23:34 47.1 °F 46.9 °F 29.97 in Calm     99% 0.05 in meteobridge W/m2
23:39 47.1 °F 46.9 °F 29.98 in Calm     99% 0.04 in meteobridge W/m2
23:44 47.1 °F 46.9 °F 29.98 in Calm     99% 0.04 in meteobridge W/m2
23:49 47.1 °F 46.9 °F 29.98 in Calm     99% 0.04 in meteobridge W/m2
23:54 47.1 °F 46.9 °F 29.99 in Calm     99% 0.04 in meteobridge W/m2
23:59 47.1 °F 46.9 °F 29.98 in Calm     99% 0.03 in meteobridge W/m2
EllijayWeather
Compliments of Weather Underground - 2.5 mb